Time;durP1;ratioP1;P1;durP2;ratioP2;P2;SDS_P1;SDS_P2;PMS_P1;PMS_P2;Temp;Humidity;BMP_temperature;BMP_pressure;BME280_temperature;BME280_humidity;BME280_pressure;Samples;Min_cycle;Max_cycle;Signal;HPM_P1;HPM_P2
2021/12/21 00:01:08;;;;;;;3.80;3.28;;;18.50;30.60;;;;;;5128441;27;47024;-18
2021/12/21 00:03:36;;;;;;;3.92;3.03;;;18.50;30.60;;;;;;5128509;27;47078;-17
2021/12/21 00:06:03;;;;;;;3.78;3.13;;;18.50;30.60;;;;;;5128742;27;46945;-19
2021/12/21 00:08:30;;;;;;;4.03;3.03;;;18.50;30.60;;;;;;5127511;27;47082;-19
2021/12/21 00:10:58;;;;;;;4.22;3.00;;;18.50;30.60;;;;;;5128232;27;47931;-19
2021/12/21 00:13:45;;;;;;;4.38;3.22;;;18.50;30.50;;;;;;5128210;27;46989;-19
2021/12/21 00:16:18;;;;;;;3.95;3.03;;;18.60;31.10;;;;;;5128593;27;46864;-19
2021/12/21 00:19:04;;;;;;;4.00;3.15;;;18.50;30.40;;;;;;5128781;27;46902;-18
2021/12/21 00:21:36;;;;;;;3.53;2.97;;;18.50;30.50;;;;;;5128574;27;47830;-18
2021/12/21 00:24:11;;;;;;;4.53;2.70;;;18.50;30.50;;;;;;5128282;27;46789;-28
2021/12/21 00:26:38;;;;;;;3.00;2.67;;;18.50;30.50;;;;;;5128554;27;46791;-29
2021/12/21 00:29:05;;;;;;;4.15;2.90;;;18.50;30.50;;;;;;5128047;27;47033;-28
2021/12/21 00:31:33;;;;;;;3.35;2.90;;;18.50;30.50;;;;;;5128333;27;48798;-29
2021/12/21 00:34:01;;;;;;;4.13;3.17;;;18.40;30.50;;;;;;5127974;27;46839;-29
2021/12/21 00:36:29;;;;;;;4.63;3.30;;;18.50;30.50;;;;;;5127999;27;46818;-19
2021/12/21 00:38:57;;;;;;;3.30;3.00;;;18.50;30.50;;;;;;5128083;27;46932;-18
2021/12/21 00:41:24;;;;;;;3.92;3.15;;;18.40;30.40;;;;;;5128074;27;49071;-28
2021/12/21 00:43:51;;;;;;;2.95;2.70;;;18.40;30.50;;;;;;5127121;27;46815;-29
2021/12/21 00:46:18;;;;;;;3.75;2.75;;;18.40;30.50;;;;;;5127958;27;46945;-29
2021/12/21 00:48:50;;;;;;;4.15;3.10;;;18.40;30.50;;;;;;5127987;27;46902;-28
2021/12/21 00:51:18;;;;;;;3.88;3.03;;;18.40;30.50;;;;;;5128141;27;47000;-18
2021/12/21 00:53:45;;;;;;;4.30;3.10;;;18.40;30.40;;;;;;5127431;27;47097;-18
2021/12/21 00:56:12;;;;;;;3.45;3.00;;;18.40;30.40;;;;;;5127645;27;46971;-29
2021/12/21 00:58:38;;;;;;;3.72;2.80;;;18.40;30.40;;;;;;5128024;27;46910;-29
2021/12/21 01:01:06;;;;;;;2.75;2.40;;;18.30;30.40;;;;;;5127610;27;47961;-28
2021/12/21 01:03:33;;;;;;;3.45;3.08;;;18.30;30.50;;;;;;5127685;27;46923;-17
2021/12/21 01:06:08;;;;;;;3.45;3.15;;;18.30;30.40;;;;;;5127933;27;47138;-18
2021/12/21 01:08:46;;;;;;;3.67;3.10;;;18.30;30.40;;;;;;5128163;27;46941;-17
2021/12/21 01:11:17;;;;;;;3.10;2.80;;;18.30;30.50;;;;;;5127603;27;47841;-29
2021/12/21 01:13:57;;;;;;;5.07;3.25;;;18.30;30.50;;;;;;5127616;27;47270;-28
2021/12/21 01:16:32;;;;;;;3.78;2.95;;;18.30;30.50;;;;;;5127747;27;46897;-28
2021/12/21 01:19:09;;;;;;;4.78;3.17;;;18.30;30.50;;;;;;5127500;27;47046;-29
2021/12/21 01:21:41;;;;;;;3.53;3.00;;;18.30;30.50;;;;;;5127270;27;48678;-18
2021/12/21 01:27:03;;;;;;;3.85;2.95;;;18.30;30.40;;;;;;5124565;27;46807;-19
2021/12/21 01:29:37;;;;;;;3.75;2.95;;;18.30;30.30;;;;;;5127367;27;46857;-18
2021/12/21 01:32:11;;;;;;;3.45;3.00;;;18.30;30.30;;;;;;5127387;27;46946;-28
2021/12/21 01:34:50;;;;;;;3.08;2.83;;;18.30;30.40;;;;;;5126982;27;47596;-29
2021/12/21 01:37:23;;;;;;;3.55;2.92;;;18.30;30.30;;;;;;5127557;27;46907;-29
2021/12/21 01:39:59;;;;;;;5.53;3.17;;;18.30;30.30;;;;;;5127079;27;47055;-28
2021/12/21 01:43:06;;;;;;;3.67;3.17;;;18.30;30.40;;;;;;5126955;27;48964;-28
2021/12/21 01:51:02;;;;;;;4.82;3.30;;;18.30;30.30;;;;;;5124361;27;46780;-18
2021/12/21 01:53:29;;;;;;;4.40;3.50;;;18.30;30.30;;;;;;5127183;27;49106;-18
2021/12/21 01:55:57;;;;;;;3.70;3.28;;;18.30;30.30;;;;;;5126780;27;46816;-19
2021/12/21 01:58:24;;;;;;;5.47;3.50;;;18.30;30.30;;;;;;5126766;27;47048;-18
2021/12/21 02:00:51;;;;;;;3.72;3.15;;;18.30;30.30;;;;;;5127116;27;46911;-18
2021/12/21 02:03:17;;;;;;;3.63;3.00;;;18.20;30.30;;;;;;5126755;27;48778;-17
2021/12/21 02:05:44;;;;;;;3.70;3.30;;;18.20;30.90;;;;;;5126763;27;46906;-19
2021/12/21 02:08:11;;;;;;;3.72;3.35;;;18.20;30.20;;;;;;5126767;27;46807;-19
2021/12/21 02:10:37;;;;;;;3.80;3.38;;;18.20;30.20;;;;;;5126868;27;46812;-18
2021/12/21 02:13:05;;;;;;;3.83;3.20;;;18.20;30.20;;;;;;5126702;27;47914;-18
2021/12/21 02:15:32;;;;;;;4.63;3.60;;;18.20;30.20;;;;;;5126620;27;47184;-17
2021/12/21 02:18:29;;;;;;;4.80;3.22;;;18.20;30.10;;;;;;5126449;27;46744;-19
2021/12/21 02:21:01;;;;;;;3.78;3.08;;;18.20;30.20;;;;;;5126718;27;46974;-18
2021/12/21 02:23:33;;;;;;;3.70;3.25;;;18.20;30.20;;;;;;5126595;27;47878;-19
2021/12/21 02:26:33;;;;;;;3.53;3.22;;;18.10;30.20;;;;;;5126610;27;46985;-18
2021/12/21 02:29:13;;;;;;;4.80;3.70;;;18.10;30.10;;;;;;5125991;27;46873;-18
2021/12/21 02:31:41;;;;;;;3.60;3.30;;;18.10;30.10;;;;;;5128840;27;46925;-29
2021/12/21 02:34:08;;;;;;;4.25;3.45;;;18.10;30.20;;;;;;5130040;27;49112;-18
2021/12/21 02:36:36;;;;;;;3.85;3.28;;;18.10;30.20;;;;;;5130027;27;46907;-29
2021/12/21 02:39:04;;;;;;;4.60;3.45;;;18.10;30.20;;;;;;5130020;27;46852;-28
2021/12/21 02:41:31;;;;;;;4.95;3.20;;;18.10;30.20;;;;;;5129996;27;46910;-28
2021/12/21 02:43:58;;;;;;;4.38;3.20;;;18.10;30.20;;;;;;5129915;27;48033;-18
2021/12/21 02:46:25;;;;;;;3.40;2.75;;;18.10;30.20;;;;;;5129947;27;46867;-18
2021/12/21 02:48:52;;;;;;;4.40;3.40;;;18.10;30.10;;;;;;5129673;27;46761;-28
2021/12/21 02:51:18;;;;;;;3.72;3.20;;;18.10;30.20;;;;;;5130074;27;46883;-18
2021/12/21 02:53:46;;;;;;;3.42;3.05;;;18.10;30.10;;;;;;5129547;27;46919;-19
2021/12/21 02:56:13;;;;;;;3.55;2.95;;;18.10;30.20;;;;;;5129455;27;46910;-29
2021/12/21 02:58:40;;;;;;;3.42;3.10;;;18.10;30.10;;;;;;5130044;27;46986;-18
2021/12/21 03:01:07;;;;;;;3.42;3.13;;;18.10;30.10;;;;;;5129880;27;47227;-18
2021/12/21 03:03:34;;;;;;;3.42;2.58;;;18.10;30.10;;;;;;5129816;27;49031;-29
2021/12/21 03:06:01;;;;;;;3.67;2.92;;;18.10;30.10;;;;;;5129967;27;46983;-26
2021/12/21 03:08:37;;;;;;;3.10;2.80;;;18.10;30.10;;;;;;5129222;27;46813;-26
2021/12/21 03:11:12;;;;;;;3.42;2.90;;;18.10;30.10;;;;;;5129543;27;47192;-16
2021/12/21 03:14:03;;;;;;;4.28;2.85;;;18.10;30.10;;;;;;5129320;27;48048;-27
2021/12/21 03:16:31;;;;;;;2.75;2.55;;;18.10;30.10;;;;;;5129442;27;46915;-15
2021/12/21 03:18:59;;;;;;;3.63;3.17;;;18.10;30.00;;;;;;5129127;27;46831;-18
2021/12/21 03:21:26;;;;;;;3.28;2.97;;;18.00;30.00;;;;;;5129794;27;47141;-27
2021/12/21 03:23:53;;;;;;;3.45;2.83;;;18.00;30.00;;;;;;5129163;27;49236;-15
2021/12/21 03:26:21;;;;;;;3.97;3.08;;;18.00;30.00;;;;;;5129510;27;46831;-16
2021/12/21 03:28:48;;;;;;;2.70;2.50;;;18.10;30.00;;;;;;5129292;27;46880;-27
2021/12/21 03:31:15;;;;;;;3.03;2.72;;;18.00;30.00;;;;;;5129563;27;46895;-26
2021/12/21 03:33:41;;;;;;;2.38;2.17;;;18.00;30.00;;;;;;5128768;27;48127;-27
2021/12/21 03:36:08;;;;;;;2.47;2.15;;;18.00;30.00;;;;;;5129158;27;47121;-27
2021/12/21 03:38:36;;;;;;;2.50;2.30;;;18.00;30.00;;;;;;5128897;27;46907;-27
2021/12/21 03:41:07;;;;;;;2.72;2.53;;;18.00;30.00;;;;;;5129192;27;47157;-26
2021/12/21 03:43:35;;;;;;;2.92;2.63;;;18.00;30.00;;;;;;5127673;27;48164;-27
2021/12/21 03:46:08;;;;;;;2.72;2.53;;;18.00;30.00;;;;;;5129343;27;47282;-27
2021/12/21 03:48:35;;;;;;;2.72;2.53;;;18.00;30.00;;;;;;5128757;27;46830;-16
2021/12/21 03:51:01;;;;;;;2.55;2.35;;;18.00;30.00;;;;;;5129229;27;47153;-27
2021/12/21 03:53:28;;;;;;;2.90;2.70;;;18.00;30.00;;;;;;5128794;27;47693;-16
2021/12/21 03:56:06;;;;;;;2.53;2.28;;;18.00;30.00;;;;;;5128995;27;47313;-16
2021/12/21 03:58:34;;;;;;;2.28;2.08;;;18.00;30.00;;;;;;5128722;27;46994;-27
2021/12/21 04:01:01;;;;;;;2.38;2.17;;;18.00;30.00;;;;;;5129037;27;46881;-16
2021/12/21 04:03:28;;;;;;;2.70;2.50;;;18.00;30.00;;;;;;5128395;27;47912;-16
2021/12/21 04:05:54;;;;;;;2.42;2.22;;;18.00;30.00;;;;;;5128638;27;46735;-17
2021/12/21 04:08:21;;;;;;;2.35;2.13;;;18.00;30.00;;;;;;5128451;27;46829;-27
2021/12/21 04:10:48;;;;;;;2.40;2.20;;;18.00;30.00;;;;;;5128791;27;47158;-26
2021/12/21 04:13:14;;;;;;;2.38;2.17;;;18.00;30.00;;;;;;5128468;27;48775;-17
2021/12/21 04:15:43;;;;;;;2.45;2.25;;;18.00;30.00;;;;;;5128405;27;47205;-27
2021/12/21 04:18:11;;;;;;;2.53;2.33;;;18.00;30.00;;;;;;5128657;27;46781;-27
2021/12/21 04:20:37;;;;;;;2.60;2.40;;;18.00;30.00;;;;;;5128592;27;46890;-27
2021/12/21 04:23:04;;;;;;;2.53;2.22;;;18.00;30.00;;;;;;5128340;27;47935;-27
2021/12/21 04:25:31;;;;;;;2.33;2.13;;;18.00;30.00;;;;;;5128151;27;46809;-26
2021/12/21 04:27:57;;;;;;;2.40;2.20;;;18.00;30.00;;;;;;5128365;27;46812;-26
2021/12/21 04:30:25;;;;;;;2.22;2.13;;;18.00;30.00;;;;;;5128495;27;47288;-26
2021/12/21 04:32:53;;;;;;;2.08;1.90;;;18.00;30.00;;;;;;5127922;27;49057;-27
2021/12/21 04:35:20;;;;;;;2.75;2.55;;;18.00;30.00;;;;;;5127790;27;46874;-27
2021/12/21 04:37:52;;;;;;;2.50;2.30;;;18.00;30.00;;;;;;5128056;27;46875;-16
2021/12/21 04:40:22;;;;;;;2.28;2.08;;;18.00;30.00;;;;;;5128363;27;46829;-16
2021/12/21 04:42:48;;;;;;;2.28;2.08;;;18.00;30.00;;;;;;5127921;27;48181;-16
2021/12/21 04:45:15;;;;;;;2.63;2.40;;;18.00;30.00;;;;;;5127355;27;46821;-26
2021/12/21 04:47:42;;;;;;;2.58;2.38;;;18.00;30.00;;;;;;5127995;27;46928;-16
2021/12/21 04:50:13;;;;;;;2.40;2.20;;;18.00;30.00;;;;;;5127995;27;46982;-27
2021/12/21 04:52:39;;;;;;;2.50;2.30;;;18.00;30.00;;;;;;5127786;27;48101;-27
2021/12/21 04:55:07;;;;;;;2.67;2.47;;;18.00;30.00;;;;;;5127051;27;47425;-16
2021/12/21 04:57:34;;;;;;;2.47;2.28;;;18.00;30.00;;;;;;5127915;27;46829;-15
2021/12/21 05:00:00;;;;;;;2.40;2.20;;;18.00;30.00;;;;;;5127621;27;46855;-15
2021/12/21 05:02:27;;;;;;;2.45;2.25;;;18.00;30.00;;;;;;5127731;27;48017;-27
2021/12/21 05:04:54;;;;;;;2.60;2.40;;;18.00;30.00;;;;;;5127685;27;46999;-15
2021/12/21 05:07:24;;;;;;;2.45;2.25;;;18.00;30.00;;;;;;5127721;27;46807;-17
2021/12/21 05:09:56;;;;;;;2.30;2.10;;;18.00;30.00;;;;;;5127567;27;46830;-15
2021/12/21 05:12:23;;;;;;;2.70;2.50;;;18.00;30.00;;;;;;5127926;27;47805;-17
2021/12/21 05:14:50;;;;;;;2.70;2.50;;;18.00;30.00;;;;;;5127086;27;47304;-16
2021/12/21 05:17:16;;;;;;;2.30;2.10;;;18.00;30.00;;;;;;5127568;27;46797;-17
2021/12/21 05:19:43;;;;;;;2.35;2.15;;;18.00;30.00;;;;;;5127684;27;47312;-15
2021/12/21 05:22:10;;;;;;;2.60;2.40;;;18.00;30.00;;;;;;5127482;27;48083;-26
2021/12/21 05:24:38;;;;;;;2.97;2.55;;;18.00;30.00;;;;;;5127192;27;46987;-27
2021/12/21 05:27:05;;;;;;;2.58;2.38;;;18.00;30.00;;;;;;5127383;27;46856;-26
2021/12/21 05:29:32;;;;;;;2.60;2.40;;;18.00;30.00;;;;;;5127141;27;46860;-27
2021/12/21 05:31:59;;;;;;;2.85;2.65;;;18.00;30.00;;;;;;5126991;27;46790;-16
2021/12/21 05:34:26;;;;;;;2.80;2.60;;;18.00;30.00;;;;;;5126846;27;47257;-17
2021/12/21 05:36:52;;;;;;;2.50;2.33;;;18.00;30.00;;;;;;5126970;27;46849;-26
2021/12/21 05:39:22;;;;;;;2.60;2.40;;;18.00;30.00;;;;;;5127344;27;46984;-27
2021/12/21 05:41:51;;;;;;;2.78;2.58;;;18.00;30.00;;;;;;5126828;27;47075;-26
2021/12/21 05:44:19;;;;;;;2.50;2.30;;;18.00;30.00;;;;;;5126858;27;47268;-27
2021/12/21 05:46:45;;;;;;;2.85;2.65;;;18.00;30.00;;;;;;5126965;27;47050;-27
2021/12/21 05:49:12;;;;;;;2.15;2.00;;;18.00;30.00;;;;;;5127147;27;46920;-27
2021/12/21 05:51:39;;;;;;;2.75;2.42;;;18.00;30.00;;;;;;5126836;27;49427;-16
2021/12/21 05:54:05;;;;;;;2.45;2.25;;;18.00;30.00;;;;;;5126638;27;46986;-26
2021/12/21 05:56:32;;;;;;;2.03;1.92;;;18.00;30.00;;;;;;5126905;27;46812;-16
2021/12/21 05:59:02;;;;;;;2.05;1.95;;;18.00;29.90;;;;;;5126805;27;47188;-27
2021/12/21 06:01:29;;;;;;;2.30;2.10;;;18.00;29.90;;;;;;5126776;27;46797;-27
2021/12/21 06:03:55;;;;;;;2.05;1.95;;;18.00;29.90;;;;;;5126554;27;47024;-27
2021/12/21 06:06:22;;;;;;;2.40;2.28;;;18.00;30.00;;;;;;5125603;27;46876;-26
2021/12/21 06:08:51;;;;;;;2.40;2.17;;;18.00;29.90;;;;;;5126826;27;46882;-17
2021/12/21 06:11:19;;;;;;;2.40;2.20;;;18.00;29.80;;;;;;5126494;27;47845;-17
2021/12/21 06:22:44;;;;;;;2.33;2.13;;;18.00;29.90;;;;;;5126081;27;46871;-25
2021/12/21 06:25:25;;;;;;;2.78;2.58;;;18.00;29.90;;;;;;5125053;27;46798;-16
2021/12/21 06:27:50;;;;;;;2.67;2.47;;;18.00;29.90;;;;;;5125784;27;46987;-27
2021/12/21 06:30:17;;;;;;;2.47;2.28;;;18.00;29.90;;;;;;5126701;27;47262;-27
2021/12/21 06:32:46;;;;;;;2.50;2.30;;;18.00;29.90;;;;;;5126099;27;49071;-27
2021/12/21 06:35:14;;;;;;;2.22;2.03;;;18.00;29.90;;;;;;5126380;27;47455;-27
2021/12/21 06:37:41;;;;;;;2.53;2.33;;;18.00;29.90;;;;;;5126627;27;46851;-16
2021/12/21 06:40:09;;;;;;;2.00;1.88;;;18.00;29.80;;;;;;5126296;27;47136;-16
2021/12/21 06:42:36;;;;;;;2.47;2.28;;;18.00;29.80;;;;;;5125887;27;48113;-17
2021/12/21 06:45:11;;;;;;;2.00;1.90;;;18.00;29.80;;;;;;5125912;27;46916;-17
2021/12/21 06:53:08;;;;;;;2.30;2.10;;;18.00;29.90;;;;;;5123235;27;46745;-27
2021/12/21 06:55:35;;;;;;;2.50;2.30;;;18.00;29.90;;;;;;5126006;27;47241;-17
2021/12/21 06:58:02;;;;;;;2.45;2.25;;;18.00;29.80;;;;;;5126112;27;46836;-17
2021/12/21 07:00:29;;;;;;;2.55;2.35;;;18.00;29.80;;;;;;5126168;27;46797;-16
2021/12/21 07:02:56;;;;;;;2.65;2.45;;;17.90;29.80;;;;;;5126005;27;49054;-15
2021/12/21 07:05:25;;;;;;;2.30;2.10;;;17.90;29.80;;;;;;5125832;27;47149;-18
2021/12/21 07:07:52;;;;;;;2.53;2.33;;;18.00;29.80;;;;;;5126225;27;46895;-17
2021/12/21 07:10:24;;;;;;;2.75;2.60;;;18.00;29.80;;;;;;5125629;27;47033;-16
2021/12/21 07:18:29;;;;;;;2.95;2.53;;;18.00;29.80;;;;;;5125869;27;46988;-16
2021/12/21 07:20:58;;;;;;;2.50;2.30;;;18.00;29.80;;;;;;5129615;27;47237;-17
2021/12/21 07:23:25;;;;;;;2.60;2.40;;;18.00;29.80;;;;;;5129064;27;46962;-16
2021/12/21 07:25:52;;;;;;;2.50;2.30;;;18.00;29.80;;;;;;5129680;27;47424;-19
2021/12/21 07:28:19;;;;;;;2.75;2.55;;;18.00;29.80;;;;;;5129333;27;46759;-29
2021/12/21 07:30:47;;;;;;;2.65;2.47;;;18.00;29.80;;;;;;5129010;27;46934;-28
2021/12/21 07:33:14;;;;;;;2.75;2.53;;;18.00;29.80;;;;;;5129058;27;48097;-16
2021/12/21 07:35:40;;;;;;;2.47;2.30;;;18.00;29.80;;;;;;5128497;27;47447;-15
2021/12/21 07:38:09;;;;;;;2.22;2.08;;;18.00;29.80;;;;;;5128919;27;46849;-26
2021/12/21 07:40:36;;;;;;;2.35;2.20;;;18.00;29.80;;;;;;5128936;27;46793;-16
2021/12/21 07:43:02;;;;;;;2.50;2.30;;;18.00;29.80;;;;;;5128623;27;48101;-27
2021/12/21 07:45:29;;;;;;;2.55;2.35;;;18.00;29.80;;;;;;5128516;27;47414;-16
2021/12/21 07:47:56;;;;;;;3.03;2.67;;;18.00;29.70;;;;;;5129195;27;46903;-17
2021/12/21 07:50:23;;;;;;;2.95;2.75;;;18.00;30.10;;;;;;5128875;27;47022;-17
2021/12/21 07:52:51;;;;;;;2.47;2.30;;;18.00;29.70;;;;;;5128631;27;49064;-17
2021/12/21 07:55:19;;;;;;;2.70;2.50;;;18.00;29.70;;;;;;5128280;27;46857;-27
2021/12/21 07:57:46;;;;;;;2.65;2.45;;;18.00;29.70;;;;;;5129006;27;47024;-16
2021/12/21 08:00:14;;;;;;;2.50;2.30;;;18.00;29.70;;;;;;5128744;27;47344;-16
2021/12/21 08:02:41;;;;;;;2.50;2.33;;;18.00;29.70;;;;;;5128663;27;48821;-27
2021/12/21 08:05:09;;;;;;;2.90;2.70;;;18.00;29.70;;;;;;5128515;27;46963;-27
2021/12/21 08:07:44;;;;;;;7.35;2.50;;;18.10;29.70;;;;;;5122238;27;46919;-26
2021/12/21 08:10:20;;;;;;;2.58;2.38;;;18.10;31.40;;;;;;5126498;27;47033;-26
2021/12/21 08:12:49;;;;;;;3.42;2.88;;;18.10;30.00;;;;;;5126869;27;48806;-16
2021/12/21 08:15:15;;;;;;;4.75;2.70;;;18.10;30.00;;;;;;5127523;27;47511;-16
2021/12/21 08:17:42;;;;;;;2.90;2.70;;;18.10;30.00;;;;;;5128042;27;46982;-26
2021/12/21 08:20:09;;;;;;;3.13;2.40;;;18.10;30.10;;;;;;5127772;27;47244;-29
2021/12/21 08:22:36;;;;;;;2.80;2.60;;;18.00;30.50;;;;;;5127921;27;49065;-29
2021/12/21 08:25:03;;;;;;;2.80;2.53;;;18.00;30.30;;;;;;5127448;27;46813;-27
2021/12/21 08:27:29;;;;;;;3.95;2.45;;;18.00;30.30;;;;;;5127939;27;46858;-26
2021/12/21 08:29:57;;;;;;;6.65;2.95;;;18.00;30.30;;;;;;5127023;27;47224;-27
2021/12/21 08:32:24;;;;;;;3.03;2.67;;;18.10;30.90;;;;;;5126518;27;48959;-20
2021/12/21 08:34:51;;;;;;;3.35;2.88;;;18.10;31.10;;;;;;5127481;27;46929;-17
2021/12/21 08:37:17;;;;;;;3.00;2.70;;;18.10;30.90;;;;;;5127350;27;46979;-35
2021/12/21 08:39:45;;;;;;;2.70;2.50;;;18.20;31.00;;;;;;5127571;27;47378;-19
2021/12/21 08:42:14;;;;;;;2.63;2.42;;;18.20;30.40;;;;;;5126971;27;48811;-16
2021/12/21 08:44:41;;;;;;;2.70;2.50;;;18.30;30.80;;;;;;5126874;27;47039;-17
2021/12/21 08:47:09;;;;;;;3.00;2.70;;;18.30;30.80;;;;;;5127303;27;46929;-27
2021/12/21 08:49:35;;;;;;;3.20;2.90;;;18.40;30.30;;;;;;5127595;27;46927;-28
2021/12/21 08:52:02;;;;;;;3.35;3.05;;;18.40;30.30;;;;;;5126807;27;48107;-27
2021/12/21 08:54:29;;;;;;;3.63;3.05;;;18.40;30.20;;;;;;5126893;27;47154;-17
2021/12/21 08:56:55;;;;;;;9.38;3.00;;;18.50;30.20;;;;;;5127353;27;46974;-17
2021/12/21 08:59:22;;;;;;;8.93;2.97;;;18.50;30.60;;;;;;5126455;27;46934;-17
2021/12/21 09:01:51;;;;;;;5.68;3.38;;;18.50;30.60;;;;;;5127302;27;48119;-17
2021/12/21 09:04:21;;;;;;;6.72;3.05;;;18.40;30.10;;;;;;5126032;27;47214;-18
2021/12/21 09:06:48;;;;;;;4.13;3.28;;;18.40;30.10;;;;;;5126528;27;46956;-19
2021/12/21 09:09:15;;;;;;;4.30;3.33;;;18.40;30.30;;;;;;5124783;27;47202;-16
2021/12/21 09:11:45;;;;;;;3.38;3.08;;;18.30;30.60;;;;;;5126837;27;47900;-28
2021/12/21 09:14:12;;;;;;;6.25;3.30;;;18.30;30.50;;;;;;5126889;27;47579;-28
2021/12/21 09:16:38;;;;;;;5.68;4.32;;;18.30;30.50;;;;;;5126891;27;46940;-28
2021/12/21 09:19:05;;;;;;;4.05;3.22;;;18.30;31.00;;;;;;5126976;27;47023;-30
2021/12/21 09:21:33;;;;;;;4.60;3.47;;;18.30;30.30;;;;;;5126550;27;47838;-28
2021/12/21 09:24:00;;;;;;;4.45;3.80;;;18.30;30.40;;;;;;5126364;27;46943;-29
2021/12/21 09:26:27;;;;;;;5.28;3.72;;;18.30;30.50;;;;;;5126627;27;47001;-18
2021/12/21 09:28:56;;;;;;;5.50;4.00;;;18.30;30.20;;;;;;5126784;27;47120;-29
2021/12/21 09:31:22;;;;;;;5.70;3.65;;;18.30;30.50;;;;;;5125348;27;48229;-29
2021/12/21 09:33:49;;;;;;;4.65;3.58;;;18.20;30.50;;;;;;5125680;27;47241;-18
2021/12/21 09:36:16;;;;;;;3.97;3.67;;;18.20;30.40;;;;;;5126699;27;46863;-18
2021/12/21 09:38:44;;;;;;;5.45;3.90;;;18.20;30.30;;;;;;5126957;27;47110;-18
2021/12/21 09:41:11;;;;;;;4.22;3.83;;;18.20;30.20;;;;;;5124835;27;46827;-28
2021/12/21 09:43:39;;;;;;;5.63;3.80;;;18.10;30.40;;;;;;5126321;27;46984;-28
2021/12/21 09:46:06;;;;;;;4.05;3.60;;;18.10;30.50;;;;;;5125003;27;46958;-28
2021/12/21 09:48:32;;;;;;;4.40;3.40;;;18.10;30.70;;;;;;5125205;27;46901;-28
2021/12/21 09:50:59;;;;;;;5.10;3.80;;;18.10;30.60;;;;;;5125036;27;48093;-28
2021/12/21 09:53:26;;;;;;;8.55;3.83;;;18.10;30.50;;;;;;5125464;27;46976;-28
2021/12/21 09:55:54;;;;;;;3.70;3.40;;;18.00;30.50;;;;;;5125957;27;46861;-28
2021/12/21 09:58:21;;;;;;;4.07;3.67;;;18.00;30.50;;;;;;5126335;27;47183;-28
2021/12/21 10:00:47;;;;;;;4.40;3.67;;;18.00;30.50;;;;;;5125978;27;48235;-28
2021/12/21 10:03:14;;;;;;;3.58;3.28;;;17.90;30.50;;;;;;5126315;27;46963;-28
2021/12/21 10:05:42;;;;;;;3.75;3.33;;;17.90;30.60;;;;;;5126654;27;46848;-28
2021/12/21 10:08:10;;;;;;;5.35;3.45;;;17.90;30.60;;;;;;5126630;27;46821;-28
2021/12/21 10:10:38;;;;;;;5.60;3.90;;;17.90;30.50;;;;;;5126278;27;47052;-19
2021/12/21 10:13:11;;;;;;;3.35;3.05;;;17.90;30.50;;;;;;5126497;27;46886;-18
2021/12/21 10:15:39;;;;;;;4.95;3.58;;;17.90;30.50;;;;;;5126721;27;47137;-18
2021/12/21 10:18:05;;;;;;;4.35;3.80;;;17.90;30.50;;;;;;5126046;27;46948;-20
2021/12/21 10:20:34;;;;;;;4.97;3.58;;;18.00;30.60;;;;;;5126411;27;49065;-17
2021/12/21 10:23:01;;;;;;;3.72;3.42;;;18.00;30.50;;;;;;5126497;27;47029;-18
2021/12/21 10:25:28;;;;;;;4.30;3.40;;;18.00;30.40;;;;;;5126530;27;46822;-17
2021/12/21 10:27:54;;;;;;;5.25;3.20;;;18.10;30.40;;;;;;5126868;27;47271;-17
2021/12/21 10:30:22;;;;;;;3.75;2.92;;;18.10;30.30;;;;;;5126436;27;48240;-17
2021/12/21 10:32:51;;;;;;;3.63;3.03;;;18.30;31.00;;;;;;5126150;27;47199;-31
2021/12/21 10:35:18;;;;;;;4.03;3.13;;;18.70;30.70;;;;;;5126242;27;46905;-18
2021/12/21 10:37:46;;;;;;;3.78;3.22;;;19.20;30.50;;;;;;5126445;27;46981;-19
2021/12/21 10:40:17;;;;;;;5.15;3.13;;;19.60;30.40;;;;;;5125864;27;48112;-20
2021/12/21 10:42:52;;;;;;;3.95;2.90;;;19.90;30.00;;;;;;5126636;27;46965;-18
2021/12/21 10:45:19;;;;;;;5.88;3.17;;;20.20;29.60;;;;;;5125874;27;46919;-18
2021/12/21 10:47:48;;;;;;;3.90;3.08;;;20.30;29.20;;;;;;5125945;27;46892;-18
2021/12/21 10:50:15;;;;;;;3.05;2.78;;;20.50;29.20;;;;;;5126039;27;46883;-19
2021/12/21 10:52:42;;;;;;;3.03;2.58;;;20.70;29.10;;;;;;5128076;27;46926;-19
2021/12/21 10:55:09;;;;;;;5.55;2.90;;;20.80;28.90;;;;;;5129776;27;46935;-19
2021/12/21 10:57:36;;;;;;;3.33;2.72;;;20.90;28.60;;;;;;5130158;27;46918;-19
2021/12/21 11:00:07;;;;;;;4.25;2.90;;;21.00;28.80;;;;;;5130161;27;48778;-19
2021/12/21 11:02:35;;;;;;;3.55;2.65;;;21.00;28.40;;;;;;5129964;27;47179;-18
2021/12/21 11:05:04;;;;;;;4.10;2.67;;;21.10;28.30;;;;;;5128936;27;46843;-18
2021/12/21 11:07:36;;;;;;;2.90;2.60;;;21.10;28.20;;;;;;5129586;27;47010;-19
2021/12/21 11:10:10;;;;;;;3.97;2.90;;;21.10;28.10;;;;;;5129451;27;47928;-18
2021/12/21 11:12:42;;;;;;;4.03;2.85;;;21.20;28.10;;;;;;5129662;27;46840;-19
2021/12/21 11:15:10;;;;;;;2.90;2.70;;;21.20;28.00;;;;;;5129060;27;46864;-18
2021/12/21 11:17:37;;;;;;;3.28;2.78;;;21.20;27.90;;;;;;5129469;27;47257;-19
2021/12/21 11:20:06;;;;;;;2.70;2.50;;;21.30;28.00;;;;;;5127435;27;48131;-19
2021/12/21 11:22:34;;;;;;;7.93;2.95;;;21.30;28.00;;;;;;5129143;27;47508;-18
2021/12/21 11:25:01;;;;;;;5.40;3.22;;;21.30;27.80;;;;;;5127866;27;46978;-18
2021/12/21 11:27:28;;;;;;;2.92;2.53;;;21.30;27.90;;;;;;5127191;27;46999;-18
2021/12/21 11:29:55;;;;;;;3.40;2.90;;;21.40;27.90;;;;;;5126689;27;47081;-19
2021/12/21 11:32:22;;;;;;;3.42;3.00;;;21.50;28.60;;;;;;5127185;27;46939;-18
2021/12/21 11:37:20;;;;;;;6.93;3.30;;;21.40;27.50;;;;;;5126549;27;46918;-18
2021/12/21 11:37:47;;;;;;;4.55;3.47;;;21.30;27.20;;;;;;5126671;27;47192;-19
2021/12/21 11:40:15;;;;;;;3.30;3.00;;;21.20;28.90;;;;;;5127788;27;48131;-17
2021/12/21 11:42:47;;;;;;;3.60;2.80;;;21.30;29.60;;;;;;5128621;27;47431;-21
2021/12/21 11:45:15;;;;;;;3.45;3.15;;;21.50;29.90;;;;;;5128044;27;46809;-19
2021/12/21 11:47:46;;;;;;;3.13;2.83;;;21.50;28.40;;;;;;5128831;27;46948;-19
2021/12/21 11:50:13;;;;;;;3.42;2.90;;;21.60;28.00;;;;;;5128341;27;48751;-19
2021/12/21 11:52:44;;;;;;;2.90;2.58;;;21.60;27.90;;;;;;5128432;27;46828;-19
2021/12/21 11:55:12;;;;;;;2.95;2.65;;;21.70;27.90;;;;;;5128245;27;46848;-19
2021/12/21 11:57:40;;;;;;;3.38;3.08;;;21.70;27.80;;;;;;5128798;27;46868;-18
2021/12/21 12:00:12;;;;;;;2.83;2.63;;;21.70;27.80;;;;;;5128110;27;48123;-19
2021/12/21 12:02:41;;;;;;;3.28;2.97;;;21.70;27.70;;;;;;5127002;27;47068;-19
2021/12/21 12:05:20;;;;;;;4.60;2.80;;;21.80;27.70;;;;;;5125282;27;46933;-19
2021/12/21 12:07:47;;;;;;;3.20;2.90;;;21.80;27.70;;;;;;5125603;27;47185;-18
2021/12/21 12:10:16;;;;;;;3.00;2.50;;;21.80;27.70;;;;;;5125187;27;48097;-19
2021/12/21 12:12:43;;;;;;;2.70;2.50;;;21.80;27.60;;;;;;5104953;27;46985;-19
2021/12/21 12:15:10;;;;;;;3.75;3.05;;;21.90;27.70;;;;;;5108818;27;46928;-29
2021/12/21 12:17:47;;;;;;;3.08;2.88;;;21.90;27.70;;;;;;5125809;27;47246;-29
2021/12/21 12:20:14;;;;;;;3.60;3.20;;;22.00;27.70;;;;;;5127178;27;48923;-19
2021/12/21 12:22:41;;;;;;;2.50;2.30;;;21.90;27.70;;;;;;5127587;27;46841;-20
2021/12/21 12:25:13;;;;;;;3.10;2.90;;;22.00;27.70;;;;;;5128022;27;46915;-19
2021/12/21 12:27:45;;;;;;;3.40;3.10;;;22.00;27.60;;;;;;5128240;27;47399;-19
2021/12/21 12:30:13;;;;;;;4.60;2.88;;;22.10;27.70;;;;;;5126581;27;47895;-18
2021/12/21 12:32:41;;;;;;;3.08;2.78;;;22.10;27.60;;;;;;5126916;27;46877;-19
2021/12/21 12:35:09;;;;;;;2.92;2.72;;;22.10;27.70;;;;;;5127110;27;47180;-19
2021/12/21 12:37:48;;;;;;;2.85;2.65;;;22.10;27.60;;;;;;5127518;27;46956;-19
2021/12/21 12:40:15;;;;;;;3.97;2.92;;;22.10;27.60;;;;;;5127132;27;47849;-19
2021/12/21 12:42:43;;;;;;;3.30;3.00;;;22.10;27.50;;;;;;5126936;27;47399;-19
2021/12/21 12:45:12;;;;;;;3.35;3.05;;;22.20;27.50;;;;;;5127040;27;47131;-19
2021/12/21 12:47:43;;;;;;;2.72;2.53;;;22.10;27.50;;;;;;5128382;27;47044;-19
2021/12/21 12:50:15;;;;;;;3.35;3.05;;;22.20;27.50;;;;;;5127376;27;49023;-19
2021/12/21 12:52:49;;;;;;;2.90;2.67;;;22.20;27.50;;;;;;5127673;27;46727;-19
2021/12/21 12:55:16;;;;;;;3.42;2.80;;;22.20;27.60;;;;;;5127920;27;46932;-19
2021/12/21 12:57:52;;;;;;;3.38;2.88;;;22.20;27.60;;;;;;5128034;27;46896;-19
2021/12/21 13:00:22;;;;;;;2.95;2.70;;;22.20;27.60;;;;;;5127590;27;47949;-18
2021/12/21 13:03:00;;;;;;;3.10;2.80;;;22.20;27.60;;;;;;5127786;27;46888;-19
2021/12/21 13:05:31;;;;;;;2.85;2.65;;;22.20;27.60;;;;;;5127235;27;46838;-19
2021/12/21 13:08:07;;;;;;;2.72;2.53;;;22.20;27.60;;;;;;5128260;27;46976;-19
2021/12/21 13:10:33;;;;;;;3.50;2.60;;;22.30;27.60;;;;;;5126306;27;47943;-20
2021/12/21 13:13:01;;;;;;;3.67;3.00;;;22.30;27.50;;;;;;5127321;27;46964;-19
2021/12/21 13:15:36;;;;;;;3.03;2.72;;;22.30;27.60;;;;;;5126803;27;46786;-19
2021/12/21 13:18:03;;;;;;;3.13;2.85;;;22.30;27.50;;;;;;5127789;27;46889;-19
2021/12/21 13:20:30;;;;;;;4.43;2.95;;;22.30;27.30;;;;;;5126816;27;48208;-19
2021/12/21 13:22:57;;;;;;;3.25;2.97;;;22.40;27.30;;;;;;5127248;27;46838;-18
2021/12/21 13:25:24;;;;;;;8.35;2.97;;;22.40;27.30;;;;;;5126531;27;46734;-18